createdAt,value
2023-03-16T00:01:06.139Z,102184.88
2023-03-16T00:03:52.137Z,102190.16
2023-03-16T00:06:37.977Z,102195.34
2023-03-16T00:09:30.763Z,102196.31
2023-03-16T00:12:18.889Z,102196.31
2023-03-16T00:15:05.001Z,102198.94
2023-03-16T00:17:51.274Z,102190.38
2023-03-16T00:20:37.356Z,102186.97
2023-03-16T00:23:27.066Z,102187.88
2023-03-16T00:26:13.284Z,102196.63
2023-03-16T00:29:01.711Z,102188.84
2023-03-16T00:31:47.877Z,102189.78
2023-03-16T00:34:34.643Z,102190.72
2023-03-16T00:37:23.204Z,102188.97
2023-03-16T00:40:11.496Z,102182.97
2023-03-16T00:42:57.330Z,102188.25
2023-03-16T00:45:45.201Z,102190.91
2023-03-16T00:48:34.398Z,102189.06
2023-03-16T00:51:20.538Z,102192.56
2023-03-16T00:54:06.627Z,102196.94
2023-03-16T00:56:52.555Z,102200.38
2023-03-16T00:59:38.994Z,102207.31
2023-03-16T01:02:26.393Z,102217.69
2023-03-16T01:05:13.516Z,102222.94
2023-03-16T01:07:59.858Z,102218.56
2023-03-16T01:10:46.223Z,102225.53
2023-03-16T01:13:32.449Z,102235.00
2023-03-16T01:16:19.279Z,102242.78
2023-03-16T01:19:09.866Z,102237.59
2023-03-16T01:21:56.053Z,102239.34
2023-03-16T01:24:42.546Z,102234.22
2023-03-16T01:27:28.584Z,102241.13
2023-03-16T01:30:14.919Z,102232.50
2023-03-16T01:33:01.496Z,102233.34
2023-03-16T01:35:54.958Z,102238.56
2023-03-16T01:38:41.839Z,102237.69
2023-03-16T01:41:27.988Z,102240.31
2023-03-16T01:44:14.724Z,102245.56
2023-03-16T01:47:00.630Z,102243.00
2023-03-16T01:49:48.256Z,102249.94
2023-03-16T01:52:36.792Z,102256.91
2023-03-16T01:55:22.819Z,102258.63
2023-03-16T01:58:09.051Z,102252.63
2023-03-16T02:00:57.668Z,102254.41
2023-03-16T02:03:43.682Z,102256.97
2023-03-16T02:06:38.504Z,102257.91
2023-03-16T02:09:25.730Z,102257.06
2023-03-16T02:12:18.338Z,102256.25
2023-03-16T02:15:08.903Z,102255.44
2023-03-16T02:17:55.049Z,102249.22
2023-03-16T02:20:43.165Z,102245.84
2023-03-16T02:23:29.250Z,102247.34
2023-03-16T02:26:18.517Z,102252.41
2023-03-16T02:29:11.601Z,102247.84
2023-03-16T02:31:59.863Z,102241.72
2023-03-16T02:34:45.828Z,102233.09
2023-03-16T02:37:34.213Z,102230.50
2023-03-16T02:40:22.206Z,102224.31
2023-03-16T02:43:11.090Z,102222.47
2023-03-16T02:46:03.889Z,102218.00
2023-03-16T02:48:52.058Z,102217.78
2023-03-16T02:51:39.149Z,102217.66
2023-03-16T02:54:25.230Z,102208.97
2023-03-16T02:57:11.706Z,102191.75
2023-03-16T02:59:58.097Z,102187.50
2023-03-16T03:02:44.448Z,102184.03
2023-03-16T03:05:33.262Z,102185.00
2023-03-16T03:08:20.374Z,102185.88
2023-03-16T03:11:06.727Z,102183.41
2023-03-16T03:13:53.128Z,102174.81
2023-03-16T03:16:41.881Z,102186.06
2023-03-16T03:19:29.286Z,102179.25
2023-03-16T03:22:18.533Z,102183.59
2023-03-16T03:25:04.370Z,102181.03
2023-03-16T03:27:51.305Z,102181.91
2023-03-16T03:30:41.763Z,102179.41
2023-03-16T03:33:28.347Z,102178.56
2023-03-16T03:36:14.630Z,102189.00
2023-03-16T03:39:05.097Z,102192.53
2023-03-16T03:41:54.469Z,102186.56
2023-03-16T03:44:41.447Z,102188.34
2023-03-16T03:47:27.780Z,102184.88
2023-03-16T03:50:14.646Z,102184.06
2023-03-16T03:53:31.838Z,102178.97
2023-03-16T03:56:33.183Z,102181.63
2023-03-16T03:59:19.178Z,102190.34
2023-03-16T04:02:25.749Z,102188.69
2023-03-16T04:05:13.865Z,102193.88
2023-03-16T04:07:59.903Z,102186.13
2023-03-16T04:10:46.224Z,102183.59
2023-03-16T04:13:33.920Z,102179.34
2023-03-16T04:16:19.892Z,102177.66
2023-03-16T04:19:09.700Z,102179.41
2023-03-16T04:21:55.520Z,102169.91
2023-03-16T04:24:43.201Z,102170.78
2023-03-16T04:27:30.176Z,102169.06
2023-03-16T04:30:18.393Z,102173.44
2023-03-16T04:33:09.194Z,102174.31
2023-03-16T04:35:55.694Z,102172.63
2023-03-16T04:38:43.051Z,102165.78
2023-03-16T04:41:30.393Z,102168.44
2023-03-16T04:44:21.738Z,102163.28
2023-03-16T04:47:10.696Z,102165.91
2023-03-16T04:50:00.250Z,102165.09
2023-03-16T04:52:46.764Z,102157.38
2023-03-16T04:55:33.066Z,102164.34
2023-03-16T04:58:19.979Z,102164.34
2023-03-16T05:01:09.066Z,102168.66
2023-03-16T05:03:58.614Z,102171.25
2023-03-16T05:06:46.071Z,102168.72
2023-03-16T05:09:32.916Z,102173.09
2023-03-16T05:12:18.960Z,102173.09
2023-03-16T05:15:07.091Z,102180.88
2023-03-16T05:17:57.118Z,102188.63
2023-03-16T05:20:45.460Z,102183.41
2023-03-16T05:23:31.483Z,102180.78
2023-03-16T05:26:21.062Z,102185.94
2023-03-16T05:29:07.244Z,102189.38
2023-03-16T05:31:54.093Z,102186.75
2023-03-16T05:34:43.332Z,102190.13
2023-03-16T05:37:31.178Z,102181.44
2023-03-16T05:40:17.996Z,102186.56
2023-03-16T05:43:10.472Z,102190.72
2023-03-16T05:46:02.592Z,102197.59
2023-03-16T05:48:49.272Z,102200.97
2023-03-16T05:51:37.747Z,102196.50
2023-03-16T05:54:26.559Z,102201.44
2023-03-16T05:57:12.852Z,102210.75
2023-03-16T06:00:01.792Z,102222.44
2023-03-16T06:02:58.323Z,102231.56
2023-03-16T06:05:49.111Z,102251.97
2023-03-16T06:08:39.709Z,102250.78
2023-03-16T06:11:32.835Z,102264.28
2023-03-16T06:14:19.419Z,102268.13
2023-03-16T06:17:05.729Z,102262.34
2023-03-16T06:19:52.521Z,102258.28
2023-03-16T06:22:39.299Z,102250.06
2023-03-16T06:25:25.289Z,102233.31
2023-03-16T06:28:12.882Z,102227.03
2023-03-16T06:30:59.663Z,102218.22
2023-03-16T06:33:50.382Z,102224.97
2023-03-16T06:36:38.817Z,102223.94
2023-03-16T06:39:27.984Z,102223.69
2023-03-16T06:42:14.205Z,102220.06
2023-03-16T06:45:01.676Z,102218.16
2023-03-16T06:47:47.907Z,102219.72
2023-03-16T06:50:34.218Z,102221.31
2023-03-16T06:53:22.046Z,102216.75
2023-03-16T06:56:08.630Z,102222.53
2023-03-16T06:58:59.089Z,102227.47
2023-03-16T07:01:46.981Z,102216.72
2023-03-16T07:04:34.002Z,102219.09
2023-03-16T07:07:20.174Z,102218.78
2023-03-16T07:10:06.707Z,102212.34
2023-03-16T07:12:53.149Z,102219.88
2023-03-16T07:15:39.231Z,102218.75
2023-03-16T07:18:27.747Z,102218.50
2023-03-16T07:21:14.232Z,102219.97
2023-03-16T07:24:00.194Z,102218.81
2023-03-16T07:26:49.653Z,102222.84
2023-03-16T07:29:44.748Z,102215.41
2023-03-16T07:32:32.411Z,102216.66
2023-03-16T07:35:21.658Z,102220.47
2023-03-16T07:38:09.907Z,102221.63
2023-03-16T07:40:55.948Z,102215.06
2023-03-16T07:43:42.317Z,102209.44
2023-03-16T07:46:29.279Z,102202.94
2023-03-16T07:49:16.615Z,102198.16
2023-03-16T07:52:04.886Z,102181.16
2023-03-16T07:54:57.186Z,102169.31
2023-03-16T07:57:47.762Z,102148.91
2023-03-16T08:00:35.851Z,102139.59
2023-03-16T08:03:22.648Z,102111.31
2023-03-16T08:06:08.803Z,102092.44
2023-03-16T08:08:57.183Z,102071.06
2023-03-16T08:11:50.911Z,102048.72
2023-03-16T08:14:37.316Z,102031.75
2023-03-16T08:17:31.055Z,102008.38
2023-03-16T08:20:19.381Z,101985.88
2023-03-16T08:23:06.748Z,101957.53
2023-03-16T08:26:01.056Z,101912.94
2023-03-16T08:28:47.774Z,101876.41
2023-03-16T08:31:34.998Z,101834.22
2023-03-16T08:34:33.646Z,101781.44
2023-03-16T08:37:20.014Z,101724.59
2023-03-16T08:40:10.607Z,101683.50
2023-03-16T08:42:59.450Z,101642.59
2023-03-16T08:45:45.523Z,101605.97
2023-03-16T08:48:33.290Z,101568.50
2023-03-16T08:51:19.530Z,101529.75
2023-03-16T08:54:05.342Z,101483.84
2023-03-16T08:56:52.635Z,101430.22
2023-03-16T08:59:40.467Z,101371.59
2023-03-16T09:02:26.674Z,101339.56
2023-03-16T09:05:13.567Z,101330.88
2023-03-16T09:08:00.140Z,101321.59
2023-03-16T09:10:46.761Z,101301.88
2023-03-16T09:13:33.121Z,101297.47
2023-03-16T09:16:21.060Z,101292.22
2023-03-16T09:19:07.987Z,101286.84
2023-03-16T09:21:54.668Z,101277.69
2023-03-16T09:24:40.570Z,101277.41
2023-03-16T09:27:26.655Z,101268.03
2023-03-16T09:30:13.124Z,101267.56
2023-03-16T09:33:00.954Z,101264.75
2023-03-16T09:35:47.046Z,101266.75
2023-03-16T09:38:33.683Z,101262.59
2023-03-16T09:41:27.648Z,101252.72
2023-03-16T09:44:19.798Z,101243.94
2023-03-16T09:47:06.068Z,101258.84
2023-03-16T09:49:53.513Z,101258.03
2023-03-16T09:52:41.291Z,101263.81
2023-03-16T09:55:28.296Z,101268.47
2023-03-16T09:58:15.568Z,101281.41
2023-03-16T10:01:04.932Z,101288.94
2023-03-16T10:04:09.730Z,101292.00
2023-03-16T10:07:02.795Z,101298.56
2023-03-16T10:09:48.941Z,101310.06
2023-03-16T10:12:36.547Z,101322.38
2023-03-16T10:15:23.713Z,101331.75
2023-03-16T10:18:13.405Z,101357.75
2023-03-16T10:20:59.961Z,101341.44
2023-03-16T10:23:48.514Z,101347.66
2023-03-16T10:26:35.070Z,101356.25
2023-03-16T10:29:20.856Z,101347.81
2023-03-16T10:32:12.193Z,101348.56
2023-03-16T10:35:00.109Z,101354.09
2023-03-16T10:37:46.848Z,101352.63
2023-03-16T10:40:34.023Z,101348.09
2023-03-16T10:43:19.955Z,101337.56
2023-03-16T10:46:05.728Z,101341.28
2023-03-16T10:48:52.915Z,101323.66
2023-03-16T10:51:38.794Z,101324.91
2023-03-16T10:54:26.188Z,101316.66
2023-03-16T10:57:20.862Z,101317.88
2023-03-16T11:00:20.547Z,101313.69
2023-03-16T11:03:14.593Z,101317.88
2023-03-16T11:06:02.122Z,101317.50
2023-03-16T11:08:48.621Z,101316.94
2023-03-16T11:11:34.797Z,101312.84
2023-03-16T11:14:23.268Z,101318.63
2023-03-16T11:17:12.192Z,101311.88
2023-03-16T11:19:59.201Z,101313.97
2023-03-16T11:22:47.104Z,101319.28
2023-03-16T11:25:33.797Z,101307.28
2023-03-16T11:28:21.020Z,101313.72
2023-03-16T11:31:14.903Z,101311.44
2023-03-16T11:34:02.734Z,101300.56
2023-03-16T11:36:50.363Z,101291.59
2023-03-16T11:39:40.397Z,101280.63
2023-03-16T11:42:30.720Z,101274.66
2023-03-16T11:45:18.877Z,101285.72
2023-03-16T11:48:11.089Z,101279.00
2023-03-16T11:51:03.690Z,101264.88
2023-03-16T11:53:53.749Z,101259.69
2023-03-16T11:56:40.450Z,101277.38
2023-03-16T11:59:30.911Z,101258.34
2023-03-16T12:02:41.008Z,101276.22
2023-03-16T12:05:49.563Z,101276.13
2023-03-16T12:08:39.797Z,101278.94
2023-03-16T12:11:26.405Z,101269.13
2023-03-16T12:14:16.513Z,101256.97
2023-03-16T12:17:03.847Z,101256.63
2023-03-16T12:19:50.704Z,101246.91
2023-03-16T12:22:38.692Z,101232.91
2023-03-16T12:25:25.773Z,101242.13
2023-03-16T12:28:18.196Z,101256.00
2023-03-16T12:31:12.406Z,101262.13
2023-03-16T12:34:03.921Z,101248.59
2023-03-16T12:36:59.013Z,101259.91
2023-03-16T12:40:08.953Z,101255.28
2023-03-16T12:43:01.308Z,101238.31
2023-03-16T12:45:49.693Z,101246.81
2023-03-16T12:48:38.761Z,101243.47
2023-03-16T12:51:33.052Z,101250.72
2023-03-16T12:54:20.215Z,101238.97
2023-03-16T12:57:07.180Z,101234.59
2023-03-16T12:59:57.135Z,101233.56
2023-03-16T13:02:44.158Z,101214.06
2023-03-16T13:05:32.270Z,101213.47
2023-03-16T13:08:18.968Z,101201.41
2023-03-16T13:11:06.001Z,101202.06
2023-03-16T13:13:52.595Z,101209.53
2023-03-16T13:16:40.382Z,101206.59
2023-03-16T13:19:27.356Z,101192.28
2023-03-16T13:22:22.011Z,101181.66
2023-03-16T13:25:13.985Z,101180.16
2023-03-16T13:27:59.954Z,101194.69
2023-03-16T13:30:47.109Z,101188.19
2023-03-16T13:33:36.668Z,101204.44
2023-03-16T13:36:22.795Z,101204.19
2023-03-16T13:39:14.461Z,101219.53
2023-03-16T13:42:01.100Z,101216.75
2023-03-16T13:44:48.132Z,101206.94
2023-03-16T13:47:33.957Z,101211.22
2023-03-16T13:50:21.736Z,101201.84
2023-03-16T13:53:11.887Z,101202.00
2023-03-16T13:55:58.208Z,101181.28
2023-03-16T13:58:44.966Z,101195.75
2023-03-16T14:01:32.152Z,101188.66
2023-03-16T14:04:23.847Z,101184.06
2023-03-16T14:07:17.524Z,101188.66
2023-03-16T14:10:05.208Z,101190.53
2023-03-16T14:12:51.742Z,101181.34
2023-03-16T14:15:38.053Z,101176.03
2023-03-16T14:18:25.546Z,101166.81
2023-03-16T14:21:13.653Z,101167.06
2023-03-16T14:24:02.164Z,101177.06
2023-03-16T14:26:49.185Z,101167.63
2023-03-16T14:29:35.678Z,101159.75
2023-03-16T14:32:23.375Z,101160.81
2023-03-16T14:35:14.091Z,101152.47
2023-03-16T14:38:14.857Z,101152.97
2023-03-16T14:41:05.076Z,101154.09
2023-03-16T14:43:53.165Z,101140.38
2023-03-16T14:46:40.479Z,101147.81
2023-03-16T14:49:27.900Z,101148.22
2023-03-16T14:52:16.245Z,101146.13
2023-03-16T14:55:03.597Z,101140.13
2023-03-16T14:57:53.128Z,101135.88
2023-03-16T15:00:52.009Z,101123.13
2023-03-16T15:03:39.255Z,101115.53
2023-03-16T15:06:25.358Z,101124.19
2023-03-16T15:09:27.905Z,101123.84
2023-03-16T15:12:14.492Z,101132.91
2023-03-16T15:15:18.039Z,101127.63
2023-03-16T15:18:04.207Z,101130.38
2023-03-16T15:20:53.632Z,101122.38
2023-03-16T15:23:39.552Z,101105.50
2023-03-16T15:26:27.225Z,101107.97
2023-03-16T15:29:13.372Z,101108.81
2023-03-16T15:32:00.873Z,101101.75
2023-03-16T15:34:46.927Z,101089.72
2023-03-16T15:37:33.086Z,101092.81
2023-03-16T15:40:20.072Z,101092.72
2023-03-16T15:43:07.262Z,101092.59
2023-03-16T15:45:54.350Z,101094.94
2023-03-16T15:48:41.762Z,101087.13
2023-03-16T15:51:28.274Z,101090.34
2023-03-16T15:54:14.346Z,101083.03
2023-03-16T15:57:00.634Z,101068.25
2023-03-16T15:59:47.529Z,101065.28
2023-03-16T16:02:33.820Z,101057.34
2023-03-16T16:05:23.080Z,101058.63
2023-03-16T16:08:10.313Z,101052.44
2023-03-16T16:10:56.424Z,101053.13
2023-03-16T16:13:45.009Z,101047.13
2023-03-16T16:16:31.822Z,101056.41
2023-03-16T16:19:18.730Z,101053.63
2023-03-16T16:22:06.708Z,101055.56
2023-03-16T16:24:52.538Z,101057.38
2023-03-16T16:27:38.621Z,101052.84
2023-03-16T16:30:25.936Z,101063.56
2023-03-16T16:33:22.025Z,101056.38
2023-03-16T16:36:08.695Z,101056.22
2023-03-16T16:38:57.146Z,101061.78
2023-03-16T16:41:43.156Z,101058.69
2023-03-16T16:44:32.903Z,101039.31
2023-03-16T16:47:20.949Z,101053.75
2023-03-16T16:50:13.723Z,101044.03
2023-03-16T16:53:00.411Z,101040.06
2023-03-16T16:55:48.501Z,101041.16
2023-03-16T16:58:34.569Z,101042.13
2023-03-16T17:01:21.970Z,101043.78
2023-03-16T17:04:12.225Z,101037.69
2023-03-16T17:07:00.654Z,101029.63
2023-03-16T17:09:46.580Z,101022.91
2023-03-16T17:12:35.526Z,101019.09
2023-03-16T17:15:22.913Z,101015.34
2023-03-16T17:18:13.110Z,101020.31
2023-03-16T17:20:58.961Z,101018.13
2023-03-16T17:23:44.979Z,101016.13
2023-03-16T17:26:31.499Z,101024.38
2023-03-16T17:29:20.991Z,101010.84
2023-03-16T17:32:11.396Z,101017.91
2023-03-16T17:34:57.233Z,101035.13
2023-03-16T17:37:43.190Z,101017.53
2023-03-16T17:40:29.983Z,101025.84
2023-03-16T17:43:16.951Z,101025.38
2023-03-16T17:46:04.364Z,101019.38
2023-03-16T17:48:52.718Z,101025.13
2023-03-16T17:51:40.403Z,101030.41
2023-03-16T17:54:26.974Z,101035.94
2023-03-16T17:57:14.688Z,101024.41
2023-03-16T18:00:00.968Z,101034.25
2023-03-16T18:02:51.363Z,101022.50
2023-03-16T18:05:37.308Z,101015.06
2023-03-16T18:08:25.053Z,101024.06
2023-03-16T18:11:13.223Z,101010.00
2023-03-16T18:13:59.084Z,101015.28
2023-03-16T18:16:45.761Z,101004.72
2023-03-16T18:19:33.130Z,100998.72
2023-03-16T18:22:20.022Z,100997.78
2023-03-16T18:25:07.811Z,101001.75
2023-03-16T18:27:53.887Z,100999.31
2023-03-16T18:30:39.942Z,101009.03
2023-03-16T18:33:27.484Z,100993.44
2023-03-16T18:36:17.611Z,100990.78
2023-03-16T18:39:05.656Z,100979.53
2023-03-16T18:41:52.573Z,100980.00
2023-03-16T18:44:39.319Z,100957.91
2023-03-16T18:47:31.337Z,100961.78
2023-03-16T18:50:19.035Z,100959.72
2023-03-16T18:53:08.177Z,100959.84
2023-03-16T18:55:56.882Z,100958.16
2023-03-16T18:58:43.175Z,100955.53
2023-03-16T19:01:30.048Z,100947.94
2023-03-16T19:04:19.756Z,100946.38
2023-03-16T19:07:05.498Z,100949.50
2023-03-16T19:09:53.415Z,100935.34
2023-03-16T19:12:39.617Z,100933.31
2023-03-16T19:15:26.568Z,100936.81
2023-03-16T19:18:12.468Z,100935.34
2023-03-16T19:20:58.871Z,100942.41
2023-03-16T19:23:45.452Z,100940.75
2023-03-16T19:26:32.995Z,100929.47
2023-03-16T19:29:19.764Z,100919.97
2023-03-16T19:32:05.733Z,100906.69
2023-03-16T19:34:51.943Z,100894.66
2023-03-16T19:37:37.839Z,100886.88
2023-03-16T19:40:25.044Z,100882.78
2023-03-16T19:43:16.976Z,100850.41
2023-03-16T19:46:03.109Z,100835.31
2023-03-16T19:48:49.447Z,100824.03
2023-03-16T19:51:35.143Z,100817.09
2023-03-16T19:54:22.262Z,100800.53
2023-03-16T19:57:11.090Z,100792.75
2023-03-16T19:59:58.419Z,100789.75
2023-03-16T20:02:44.206Z,100773.19
2023-03-16T20:05:31.744Z,100765.41
2023-03-16T20:08:20.476Z,100752.34
2023-03-16T20:11:07.292Z,100744.19
2023-03-16T20:13:53.136Z,100749.31
2023-03-16T20:16:40.770Z,100743.22
2023-03-16T20:19:26.459Z,100744.31
2023-03-16T20:22:12.928Z,100727.38
2023-03-16T20:25:01.262Z,100728.47
2023-03-16T20:27:47.571Z,100722.09
2023-03-16T20:30:34.341Z,100723.78
2023-03-16T20:33:23.786Z,100720.06
2023-03-16T20:36:10.905Z,100717.41
2023-03-16T20:38:56.843Z,100719.09
2023-03-16T20:41:42.849Z,100725.22
2023-03-16T20:44:30.157Z,100728.31
2023-03-16T20:47:16.340Z,100706.63
2023-03-16T20:50:04.518Z,100710.09
2023-03-16T20:52:51.536Z,100694.38
2023-03-16T20:55:37.546Z,100707.19
2023-03-16T20:58:24.404Z,100701.78
2023-03-16T21:01:17.379Z,100700.88
2023-03-16T21:04:03.472Z,100697.59
2023-03-16T21:06:51.068Z,100681.91
2023-03-16T21:09:37.215Z,100682.50
2023-03-16T21:12:24.223Z,100675.31
2023-03-16T21:15:16.092Z,100676.25
2023-03-16T21:18:02.937Z,100680.59
2023-03-16T21:20:49.843Z,100682.25
2023-03-16T21:23:37.600Z,100673.38
2023-03-16T21:26:23.989Z,100661.16
2023-03-16T21:29:15.810Z,100654.44
2023-03-16T21:32:14.783Z,100651.91
2023-03-16T21:35:04.184Z,100651.66
2023-03-16T21:37:52.567Z,100635.50
2023-03-16T21:40:46.084Z,100629.38
2023-03-16T21:43:42.839Z,100619.09
2023-03-16T21:46:28.689Z,100617.16
2023-03-16T21:49:20.580Z,100605.19
2023-03-16T21:52:30.935Z,100612.47
2023-03-16T21:55:25.919Z,100608.88
2023-03-16T21:58:18.600Z,100613.31
2023-03-16T22:01:06.087Z,100607.31
2023-03-16T22:03:53.818Z,100603.97
2023-03-16T22:06:39.933Z,100584.94
2023-03-16T22:09:29.862Z,100597.59
2023-03-16T22:12:16.738Z,100599.72
2023-03-16T22:15:03.974Z,100595.91
2023-03-16T22:17:50.067Z,100590.75
2023-03-16T22:20:36.491Z,100592.16
2023-03-16T22:23:40.884Z,100594.56
2023-03-16T22:26:27.694Z,100587.75
2023-03-16T22:29:18.207Z,100571.03
2023-03-16T22:32:06.146Z,100579.34
2023-03-16T22:34:52.392Z,100565.56
2023-03-16T22:37:38.641Z,100548.09
2023-03-16T22:40:24.925Z,100540.69
2023-03-16T22:43:12.259Z,100541.28
2023-03-16T22:45:59.147Z,100520.97
2023-03-16T22:48:46.669Z,100522.97
2023-03-16T22:51:33.417Z,100509.22
2023-03-16T22:54:19.793Z,100507.94
2023-03-16T22:57:06.253Z,100511.53
2023-03-16T22:59:52.311Z,100513.69
2023-03-16T23:02:38.620Z,100504.34
2023-03-16T23:05:26.823Z,100502.09
2023-03-16T23:08:14.377Z,100497.78
2023-03-16T23:11:00.451Z,100502.66
2023-03-16T23:13:46.423Z,100495.00
2023-03-16T23:16:34.483Z,100498.50
2023-03-16T23:19:25.221Z,100503.16
2023-03-16T23:22:13.273Z,100510.94
2023-03-16T23:24:59.191Z,100512.22
2023-03-16T23:27:44.960Z,100510.94
2023-03-16T23:30:31.419Z,100505.91
2023-03-16T23:33:17.862Z,100513.09
2023-03-16T23:36:04.072Z,100497.78
2023-03-16T23:38:51.749Z,100511.06
2023-03-16T23:41:37.775Z,100502.47
2023-03-16T23:44:24.430Z,100500.06
2023-03-16T23:47:10.795Z,100495.53
2023-03-16T23:49:56.841Z,100490.50
2023-03-16T23:52:42.639Z,100481.19
2023-03-16T23:55:29.914Z,100477.22
2023-03-16T23:58:16.346Z,100473.28
